Paderborn, Germany

11:19 AM CEST on October 20, 2014 (GMT +0200)
Paderborn-Lippstadt | Change Station
CLOSE
Current Station
Airport
Location: Paderborn,
Elevation: 699 ft
Nearby Weather Stations

Elev 699 ft 51.61 °N, 8.62 °E | Updated -18 second ago

Scattered Clouds
Scattered Clouds
57 °F
Feels Like 57 °F
N
14
Wind Variable Wind from WSW

Today
High -- | Low -- °F
--% Chance of Precip.
Yesterday
High -- | Low -- °F
Precip. -- in
7:57 AM 6:21 PM
Waning Crescent, 12% visible
Pressure 30.01 in
Visibility 6.2 miles
Clouds Few 2300 ft
Scattered Clouds 4000 ft
Dew Point 48 °F
Humidity 72%
Rainfall 0.00 in
Snow Depth Not available.
UV 2 out of 12
Pollen Not available.
Air Quality Not available.
Flu Activity Not available.
METAR EDLP 200920Z 25012KT 220V310 9999 FEW023 SCT040 14/09 Q1016 RMK ATIS OSC

More Conditions Fewer Conditions

Pressure 30.01 in
Visibility 6.2 miles
Clouds Few 2300 ft
Scattered Clouds 4000 ft
Dew Point 48 °F
Humidity 72%
Rainfall 0.00 in
Snow Depth Not available.
UV 2 out of 12
Pollen Not available.
Air Quality Not available.
Flu Activity Not available.
METAR EDLP 200920Z 25012KT 220V310 9999 FEW023 SCT040 14/09 Q1016 RMK ATIS OSC

More Conditions Fewer Conditions

10-Day Weather Forecast

Almanac

Astronomy

Oct. 20, 2014 Rise Set
Actual Time 7:57 AM CEST 6:21 PM CEST
Civil Twilight 7:23 AM CEST 6:55 PM CEST
Nautical Twilight 6:44 AM CEST 7:34 PM CEST
Astronomical Twilight 6:06 AM CEST 8:13 PM CEST
Moon 4:07 AM CEST 4:56 PM CEST
Length of Visible Light 11h 32m
Length of Day
10h 23m
Tomorrow will be 3m 48s shorter.
Waning Crescent, 12% of the Moon is Illuminated
Today
Waning Crescent
Oct 23
New
Oct 30
First Quarter
Nov 6
Full
Nov 14
Last Quarter

Yesterday's Extremes

Country Highs Country Lows

Community

WunderPhotos

Upload Photos

1,763,316 photos uploaded!

Nearby

Snow Depth

Not available.

Earthquake Activity

City Distance Mag. Time & Date
No recent earthquake activity has been reported nearby.
Minimum magnitude displayed is 2.5.

Coastal Water Temperatures

Place Temperature
No Stations Reporting

Nearby Weather Stations